Time;durP1;ratioP1;P1;durP2;ratioP2;P2;SDS_P1;SDS_P2;PMS_P1;PMS_P2;Temp;Humidity;BMP_temperature;BMP_pressure;BME280_temperature;BME280_humidity;BME280_pressure;Samples;Min_cycle;Max_cycle;Signal;HPM_P1;HPM_P2
2024/03/21 00:01:39;;;;;;;14.00;9.07;;;;;;;1.29;100.00;98089.91;6295146;28;20226;-51
2024/03/21 00:04:40;;;;;;;15.17;8.73;;;;;;;1.24;100.00;98091.44;6291995;28;20197;-51
2024/03/21 00:07:47;;;;;;;10.77;8.10;;;;;;;1.22;100.00;98099.44;6305882;28;20262;-50
2024/03/21 00:10:48;;;;;;;12.03;8.50;;;;;;;1.26;100.00;98090.25;6287833;28;20200;-51
2024/03/21 00:13:49;;;;;;;15.70;9.07;;;;;;;1.23;100.00;98093.25;6292517;28;20216;-49
2024/03/21 00:16:51;;;;;;;14.53;8.67;;;;;;;1.01;100.00;98083.50;6290086;28;20220;-48
2024/03/21 00:19:52;;;;;;;12.10;8.07;;;;;;;1.04;100.00;98091.03;6293913;28;20264;-51
2024/03/21 00:22:53;;;;;;;16.53;9.03;;;;;;;0.99;100.00;98088.09;6299681;28;20603;-56
2024/03/21 00:25:58;;;;;;;12.47;8.93;;;;;;;1.05;100.00;98083.97;6293684;28;20223;-52
2024/03/21 00:28:59;;;;;;;11.90;8.70;;;;;;;1.00;100.00;98082.69;6309729;28;20644;-52
2024/03/21 00:32:00;;;;;;;13.57;8.50;;;;;;;0.98;100.00;98079.41;6305389;28;20281;-52
2024/03/21 00:35:02;;;;;;;13.70;8.90;;;;;;;1.05;100.00;98078.72;6293670;28;20202;-49
2024/03/21 00:38:03;;;;;;;12.73;8.60;;;;;;;1.01;100.00;98083.50;6298347;28;20221;-51
2024/03/21 00:41:04;;;;;;;14.23;8.43;;;;;;;0.98;100.00;98089.06;6295915;28;20243;-49
2024/03/21 00:44:07;;;;;;;12.67;8.03;;;;;;;0.99;100.00;98082.88;6298496;28;20783;-52
2024/03/21 00:47:08;;;;;;;11.73;7.97;;;;;;;0.86;100.00;98080.78;6299067;28;20608;-51
2024/03/21 00:50:09;;;;;;;16.33;9.77;;;;;;;0.86;100.00;98083.41;6300980;28;20208;-52
2024/03/21 00:53:10;;;;;;;11.97;8.43;;;;;;;0.75;100.00;98079.34;6306781;28;20694;-50
2024/03/21 00:56:11;;;;;;;13.57;8.73;;;;;;;0.77;100.00;98079.97;6320086;28;20673;-51
2024/03/21 00:59:12;;;;;;;15.97;9.87;;;;;;;0.83;100.00;98073.22;6318630;28;20725;-49
2024/03/21 01:02:14;;;;;;;15.93;9.87;;;;;;;0.69;100.00;98051.19;6288219;28;20697;-47
2024/03/21 01:05:18;;;;;;;14.63;9.40;;;;;;;0.74;100.00;98061.97;6307509;28;20226;-49
2024/03/21 01:08:19;;;;;;;13.03;8.33;;;;;;;0.70;100.00;98071.16;6286867;28;20877;-49
2024/03/21 01:11:20;;;;;;;12.03;8.07;;;;;;;0.62;100.00;98052.03;6318328;28;20238;-49
2024/03/21 01:14:21;;;;;;;13.53;8.73;;;;;;;0.66;100.00;98066.44;6320076;28;20193;-50
2024/03/21 01:17:23;;;;;;;13.33;8.53;;;;;;;0.68;100.00;98067.88;6312381;28;20190;-50
2024/03/21 01:20:24;;;;;;;15.40;8.60;;;;;;;0.66;100.00;98064.63;6300085;28;20182;-50
2024/03/21 01:23:25;;;;;;;11.57;8.50;;;;;;;0.69;100.00;98071.31;6318480;28;20196;-51
2024/03/21 01:26:25;;;;;;;12.47;8.40;;;;;;;0.63;100.00;98062.34;6316701;28;20205;-49
2024/03/21 01:29:27;;;;;;;13.17;8.00;;;;;;;0.53;100.00;98045.97;6300718;28;20275;-49
2024/03/21 01:32:28;;;;;;;14.53;10.20;;;;;;;0.55;100.00;98062.38;6303806;28;20197;-50
2024/03/21 01:35:29;;;;;;;14.33;9.03;;;;;;;0.45;100.00;98046.84;6302590;28;20656;-52
2024/03/21 01:38:30;;;;;;;10.90;8.30;;;;;;;0.72;100.00;98060.50;6313272;28;20187;-51
2024/03/21 01:41:31;;;;;;;10.93;7.23;;;;;;;0.59;100.00;98053.19;6320890;28;20251;-50
2024/03/21 01:44:32;;;;;;;12.20;8.07;;;;;;;0.46;100.00;98045.03;6309949;28;20326;-51
2024/03/21 01:47:33;;;;;;;11.47;8.30;;;;;;;0.43;100.00;98053.22;6315274;28;20197;-53
2024/03/21 01:50:35;;;;;;;14.07;8.17;;;;;;;0.42;100.00;98044.53;6334985;28;20194;-51
2024/03/21 01:53:37;;;;;;;13.87;9.07;;;;;;;0.28;100.00;98024.28;6300249;28;20202;-51
2024/03/21 01:56:39;;;;;;;13.27;9.13;;;;;;;0.43;100.00;98037.50;6324879;28;20182;-56
2024/03/21 01:59:40;;;;;;;13.80;8.60;;;;;;;0.42;100.00;98035.88;6304436;28;20201;-49
2024/03/21 02:02:41;;;;;;;10.97;7.83;;;;;;;0.65;100.00;98034.16;6320429;28;20194;-54
2024/03/21 02:05:42;;;;;;;12.80;8.60;;;;;;;0.53;100.00;98035.50;6305992;28;20224;-51
2024/03/21 02:08:43;;;;;;;15.03;8.03;;;;;;;0.40;100.00;98033.44;6299266;28;20179;-51
2024/03/21 02:11:44;;;;;;;15.53;9.63;;;;;;;0.39;100.00;98033.56;6299543;28;20190;-52
2024/03/21 02:14:47;;;;;;;13.07;9.40;;;;;;;0.37;100.00;98031.13;6316005;28;20194;-49
2024/03/21 02:17:48;;;;;;;12.17;8.60;;;;;;;0.33;100.00;98029.81;6314876;28;20247;-51
2024/03/21 02:20:49;;;;;;;15.33;8.60;;;;;;;0.31;100.00;98026.56;6304236;28;20205;-50
2024/03/21 02:23:51;;;;;;;13.60;9.10;;;;;;;0.18;100.00;97986.97;6303581;28;20189;-50
2024/03/21 02:26:52;;;;;;;13.27;8.77;;;;;;;0.32;100.00;98016.91;6305724;28;20270;-49
2024/03/21 02:29:53;;;;;;;10.97;8.00;;;;;;;0.31;100.00;98021.31;6297819;28;20229;-49
2024/03/21 02:32:54;;;;;;;12.27;8.20;;;;;;;0.25;100.00;98014.97;6315843;28;20189;-51
2024/03/21 02:35:55;;;;;;;13.87;8.43;;;;;;;0.29;100.00;98014.59;6316282;28;20192;-50
2024/03/21 02:38:56;;;;;;;12.30;8.80;;;;;;;0.25;100.00;98019.38;6304790;28;20564;-52
2024/03/21 02:41:57;;;;;;;14.50;8.97;;;;;;;0.27;100.00;98014.78;6311226;28;20270;-48
2024/03/21 02:44:58;;;;;;;13.13;9.30;;;;;;;0.17;100.00;98017.59;6296531;28;20234;-49
2024/03/21 02:48:00;;;;;;;14.07;9.10;;;;;;;0.21;100.00;98012.84;6290066;28;20215;-51
2024/03/21 02:51:01;;;;;;;14.93;9.33;;;;;;;0.30;100.00;98011.84;6294088;28;20217;-49
2024/03/21 02:54:02;;;;;;;12.87;8.33;;;;;;;0.17;100.00;98022.03;6298264;28;20190;-49
2024/03/21 02:57:05;;;;;;;12.53;8.70;;;;;;;0.23;100.00;98016.09;6305899;28;20181;-50
2024/03/21 03:00:06;;;;;;;16.60;9.20;;;;;;;0.30;100.00;98013.66;6288412;28;20203;-50
2024/03/21 03:03:07;;;;;;;15.33;9.57;;;;;;;0.28;100.00;98007.75;6296671;28;20202;-51
2024/03/21 03:06:09;;;;;;;13.60;8.87;;;;;;;0.31;100.00;98007.41;6292461;28;20323;-51
2024/03/21 03:09:10;;;;;;;14.50;8.47;;;;;;;0.22;100.00;98015.28;6296257;28;20233;-49
2024/03/21 03:12:11;;;;;;;12.33;8.57;;;;;;;0.20;100.00;98019.06;6304467;28;20198;-49
2024/03/21 03:15:12;;;;;;;12.53;8.57;;;;;;;0.17;100.00;98017.59;6285858;28;20573;-49
2024/03/21 03:18:13;;;;;;;13.43;8.70;;;;;;;0.17;100.00;98014.97;6297884;28;20177;-51
2024/03/21 03:21:14;;;;;;;16.67;9.60;;;;;;;0.18;100.00;98007.94;6294837;28;20223;-49
2024/03/21 03:24:15;;;;;;;14.43;9.70;;;;;;;0.21;100.00;98018.09;6300659;28;20199;-50
2024/03/21 03:27:17;;;;;;;12.60;8.73;;;;;;;0.06;100.00;98004.03;6292273;28;20589;-49
2024/03/21 03:30:18;;;;;;;14.67;9.20;;;;;;;0.18;100.00;98021.84;6288628;28;20651;-53
2024/03/21 03:36:38;;;;;;;14.00;9.00;;;;;;;0.11;100.00;98017.47;6301161;28;20668;-50
2024/03/21 03:39:39;;;;;;;13.07;8.73;;;;;;;0.05;100.00;98025.94;6297851;28;20199;-50
2024/03/21 03:42:40;;;;;;;16.07;8.93;;;;;;;0.11;100.00;98022.69;6296667;28;20194;-51
2024/03/21 03:45:42;;;;;;;14.77;9.33;;;;;;;0.20;100.00;98026.94;6294722;28;20225;-50
2024/03/21 03:48:43;;;;;;;16.87;9.57;;;;;;;0.14;100.00;98028.41;6289874;28;20206;-48
2024/03/21 03:51:44;;;;;;;13.47;9.03;;;;;;;0.14;100.00;98038.88;6295056;28;20182;-50
2024/03/21 03:54:45;;;;;;;13.33;9.20;;;;;;;0.15;100.00;98029.25;6304456;28;20197;-49
2024/03/21 03:57:46;;;;;;;17.07;9.43;;;;;;;0.02;100.00;98021.06;6301150;28;20516;-50
2024/03/21 04:00:58;;;;;;;15.63;9.73;;;;;;;0.18;100.00;98036.75;6302612;28;20189;-50
2024/03/21 04:03:59;;;;;;;13.67;8.93;;;;;;;-0.04;100.00;98012.91;6312674;28;20191;-50
2024/03/21 04:07:00;;;;;;;15.00;9.33;;;;;;;0.14;100.00;98030.19;6301824;28;20218;-51
2024/03/21 04:10:01;;;;;;;12.17;8.50;;;;;;;0.25;100.00;98041.16;6294394;28;20205;-50
2024/03/21 04:13:02;;;;;;;17.57;8.73;;;;;;;0.28;100.00;98036.56;6300037;28;20194;-47
2024/03/21 04:16:03;;;;;;;12.87;8.20;;;;;;;0.36;100.00;98041.78;6314611;28;20248;-48
2024/03/21 04:19:04;;;;;;;13.50;7.80;;;;;;;0.27;100.00;98043.59;6310190;28;20194;-52
2024/03/21 04:22:05;;;;;;;12.07;8.27;;;;;;;0.28;100.00;98033.94;6297218;28;20243;-50
2024/03/21 04:25:06;;;;;;;11.80;7.50;;;;;;;0.76;100.00;98043.44;6296763;28;20672;-48
2024/03/21 04:28:08;;;;;;;10.20;7.23;;;;;;;0.60;100.00;98033.84;6308357;28;20205;-49
2024/03/21 04:31:09;;;;;;;10.97;7.37;;;;;;;0.39;100.00;98036.19;6302956;28;20558;-50
2024/03/21 04:34:13;;;;;;;12.10;7.93;;;;;;;0.26;100.00;98039.34;6294023;28;20191;-52
2024/03/21 04:37:19;;;;;;;12.30;7.17;;;;;;;0.24;100.00;98036.88;6298932;28;20884;-50
2024/03/21 04:40:20;;;;;;;15.43;8.23;;;;;;;0.12;100.00;98026.94;6301541;28;20217;-49
2024/03/21 04:43:21;;;;;;;12.07;7.57;;;;;;;0.15;100.00;98040.53;6301980;28;20649;-49
2024/03/21 04:46:22;;;;;;;12.93;8.13;;;;;;;0.13;100.00;98045.09;6294073;28;20221;-50
2024/03/21 04:49:23;;;;;;;13.40;8.60;;;;;;;0.29;100.00;98044.25;6280248;28;20211;-50
2024/03/21 04:52:26;;;;;;;13.10;8.53;;;;;;;0.22;100.00;98046.72;6292475;28;20240;-50
2024/03/21 04:55:27;;;;;;;11.97;7.90;;;;;;;0.28;100.00;98047.03;6293906;28;20199;-51
2024/03/21 04:58:29;;;;;;;11.87;7.97;;;;;;;0.31;100.00;98049.34;6297229;28;20289;-53
2024/03/21 05:01:30;;;;;;;13.93;8.37;;;;;;;0.28;100.00;98049.66;6293835;28;20197;-50
2024/03/21 05:04:31;;;;;;;13.67;8.43;;;;;;;0.41;100.00;98055.22;6294868;28;20196;-51
2024/03/21 05:07:33;;;;;;;13.40;7.93;;;;;;;0.61;100.00;98051.22;6292859;28;20203;-50
2024/03/21 05:10:34;;;;;;;10.23;7.17;;;;;;;0.17;100.00;98038.56;6291843;28;20206;-51
2024/03/21 05:13:35;;;;;;;14.73;9.20;;;;;;;0.36;100.00;98052.28;6295008;28;20190;-49
2024/03/21 05:16:36;;;;;;;11.77;7.80;;;;;;;0.47;100.00;98055.34;6278436;28;20933;-48
2024/03/21 05:19:38;;;;;;;13.97;10.33;;;;;;;0.52;100.00;98053.03;6293557;28;20200;-50
2024/03/21 05:22:39;;;;;;;11.27;7.67;;;;;;;0.69;100.00;98022.34;6288927;28;20201;-53
2024/03/21 05:25:40;;;;;;;16.47;9.87;;;;;;;0.48;100.00;98038.63;6295528;28;20191;-50
2024/03/21 05:28:41;;;;;;;13.00;7.67;;;;;;;0.64;100.00;98052.66;6299674;28;20212;-50
2024/03/21 05:31:42;;;;;;;11.10;7.27;;;;;;;0.60;100.00;98060.06;6293678;28;20208;-50
2024/03/21 05:34:43;;;;;;;12.77;8.00;;;;;;;0.68;100.00;98057.41;6292473;28;20541;-52
2024/03/21 05:37:44;;;;;;;12.23;8.03;;;;;;;0.78;100.00;98057.19;6303915;28;20198;-51
2024/03/21 05:40:45;;;;;;;12.90;8.30;;;;;;;0.92;100.00;98055.66;6290360;28;20188;-50
2024/03/21 05:43:46;;;;;;;14.00;8.30;;;;;;;1.16;100.00;98060.78;6294103;28;20196;-50
2024/03/21 05:46:50;;;;;;;13.33;8.23;;;;;;;1.13;100.00;98063.75;6321215;28;20259;-53
2024/03/21 05:49:51;;;;;;;12.37;7.90;;;;;;;1.27;100.00;98052.50;6314189;28;20200;-51
2024/03/21 05:52:52;;;;;;;13.17;8.20;;;;;;;1.28;100.00;98046.31;6299947;28;20198;-50
2024/03/21 05:55:59;;;;;;;10.80;7.83;;;;;;;1.14;100.00;98015.56;6304270;28;20198;-52
2024/03/21 05:59:00;;;;;;;9.30;7.10;;;;;;;1.33;100.00;98045.78;6296107;28;20233;-49
2024/03/21 06:02:01;;;;;;;12.03;7.80;;;;;;;1.36;100.00;98052.47;6299621;28;20203;-51
2024/03/21 06:05:02;;;;;;;12.60;8.03;;;;;;;1.41;100.00;98050.16;6316963;28;20187;-51
2024/03/21 06:08:03;;;;;;;10.70;6.97;;;;;;;1.55;100.00;98055.47;6300492;28;20697;-51
2024/03/21 06:11:04;;;;;;;9.40;7.17;;;;;;;1.70;100.00;98052.88;6302024;28;20186;-52
2024/03/21 06:14:05;;;;;;;12.50;8.30;;;;;;;1.69;100.00;98053.06;6303536;28;20622;-52
2024/03/21 06:17:06;;;;;;;16.40;8.23;;;;;;;1.83;100.00;98054.94;6316756;28;20187;-50
2024/03/21 06:20:09;;;;;;;10.93;7.17;;;;;;;1.99;100.00;98056.59;6299665;28;20188;-52
2024/03/21 06:23:10;;;;;;;9.93;7.57;;;;;;;2.09;100.00;98062.41;6302649;28;20190;-50
2024/03/21 06:26:11;;;;;;;10.90;7.93;;;;;;;2.13;100.00;98060.25;6299402;28;20189;-50
2024/03/21 06:29:12;;;;;;;10.63;7.20;;;;;;;2.18;100.00;98065.78;6299411;28;20206;-52
2024/03/21 06:32:13;;;;;;;11.17;6.90;;;;;;;2.40;100.00;98062.25;6311376;28;20189;-51
2024/03/21 06:35:14;;;;;;;12.13;7.30;;;;;;;2.44;100.00;98042.50;6304519;28;20202;-54
2024/03/21 06:38:15;;;;;;;11.23;6.93;;;;;;;2.45;100.00;98062.53;6299550;28;20197;-54
2024/03/21 06:41:17;;;;;;;13.63;7.70;;;;;;;2.62;100.00;98057.13;6314823;28;20545;-50
2024/03/21 06:44:18;;;;;;;10.33;7.40;;;;;;;2.52;100.00;98057.41;6298866;28;20235;-51
2024/03/21 06:47:20;;;;;;;9.53;6.63;;;;;;;2.52;100.00;98060.84;6317143;28;20211;-52
2024/03/21 06:50:21;;;;;;;8.90;6.67;;;;;;;2.80;100.00;98057.56;6315902;28;20240;-53
2024/03/21 06:53:22;;;;;;;9.97;7.07;;;;;;;2.74;100.00;98058.28;6298861;28;20196;-52
2024/03/21 06:56:23;;;;;;;8.93;6.87;;;;;;;2.66;100.00;98055.75;6299310;28;20259;-50
2024/03/21 06:59:25;;;;;;;11.33;7.10;;;;;;;2.81;100.00;98049.50;6307559;28;20677;-51
2024/03/21 07:02:26;;;;;;;8.90;6.27;;;;;;;2.80;100.00;98053.09;6300134;28;20200;-52
2024/03/21 07:05:27;;;;;;;7.70;6.27;;;;;;;2.79;100.00;98046.22;6298461;28;20198;-50
2024/03/21 07:08:28;;;;;;;8.70;5.90;;;;;;;3.00;100.00;98047.28;6301126;28;20282;-51
2024/03/21 07:11:29;;;;;;;9.33;6.47;;;;;;;3.13;100.00;98052.69;6306275;28;20189;-52
2024/03/21 07:14:33;;;;;;;7.40;5.23;;;;;;;3.20;100.00;98050.13;6320717;28;20529;-51
2024/03/21 07:17:35;;;;;;;6.83;5.63;;;;;;;3.25;100.00;98053.88;6327491;28;20204;-53
2024/03/21 07:20:36;;;;;;;7.67;5.60;;;;;;;3.34;100.00;98050.09;6305529;28;20200;-51
2024/03/21 07:23:37;;;;;;;7.70;5.53;;;;;;;3.44;100.00;98046.34;6302908;28;20641;-51
2024/03/21 07:26:38;;;;;;;10.30;6.83;;;;;;;3.59;100.00;98047.91;6306938;28;20189;-53
2024/03/21 07:29:39;;;;;;;8.47;5.70;;;;;;;3.76;100.00;98043.22;6286836;28;20204;-50
2024/03/21 07:32:40;;;;;;;8.33;6.37;;;;;;;4.05;100.00;98051.97;6320506;28;20205;-54
2024/03/21 07:35:41;;;;;;;12.00;7.20;;;;;;;4.27;100.00;98044.81;6305755;28;20185;-51
2024/03/21 07:38:42;;;;;;;6.37;5.47;;;;;;;4.63;100.00;98052.53;6320987;28;20191;-51
2024/03/21 07:41:43;;;;;;;7.50;6.03;;;;;;;5.02;100.00;98040.56;6323562;28;20209;-53
2024/03/21 07:44:44;;;;;;;8.57;6.17;;;;;;;5.49;100.00;98042.34;6295014;28;20233;-55
2024/03/21 07:47:45;;;;;;;8.70;5.27;;;;;;;5.93;100.00;98035.72;6299607;28;20203;-53
2024/03/21 07:50:46;;;;;;;7.77;5.47;;;;;;;6.57;100.00;98040.31;6303241;28;20200;-53
2024/03/21 07:53:47;;;;;;;6.57;5.00;;;;;;;7.12;100.00;98037.28;6299434;28;20246;-53
2024/03/21 07:56:48;;;;;;;7.63;5.33;;;;;;;7.74;97.97;98033.09;6303844;28;20190;-54
2024/03/21 07:59:49;;;;;;;12.53;5.30;;;;;;;8.25;95.32;98035.50;6294274;28;20190;-54
2024/03/21 08:02:50;;;;;;;8.93;4.00;;;;;;;8.93;90.57;98032.00;6294909;28;20193;-56
2024/03/21 08:05:52;;;;;;;6.93;4.17;;;;;;;9.28;86.32;98029.50;6296877;28;20186;-54
2024/03/21 08:08:53;;;;;;;5.23;4.07;;;;;;;9.65;78.19;98029.41;6308891;28;20204;-54
2024/03/21 08:11:56;;;;;;;7.53;3.97;;;;;;;10.18;80.45;98023.25;6296293;28;20193;-56
2024/03/21 08:14:57;;;;;;;7.07;3.70;;;;;;;10.65;80.05;98035.81;6293903;28;20201;-55
2024/03/21 08:17:58;;;;;;;3.90;3.37;;;;;;;10.94;76.50;98028.69;6284017;28;20204;-54
2024/03/21 08:21:00;;;;;;;5.83;3.57;;;;;;;11.32;73.14;98031.56;6298187;28;20216;-55
2024/03/21 08:24:02;;;;;;;5.27;3.47;;;;;;;11.52;71.21;98020.47;6295830;28;20217;-55
2024/03/21 08:27:03;;;;;;;5.37;3.43;;;;;;;11.84;68.71;98039.50;6303855;28;20562;-55
2024/03/21 08:30:07;;;;;;;4.83;3.53;;;;;;;11.99;69.54;98030.94;6303813;28;20193;-56
2024/03/21 08:33:08;;;;;;;4.80;3.53;;;;;;;12.36;67.55;98028.59;6280487;28;20214;-55
2024/03/21 08:36:09;;;;;;;5.60;3.73;;;;;;;12.39;66.39;98021.94;6292245;28;20592;-55
2024/03/21 08:39:10;;;;;;;5.87;3.30;;;;;;;12.63;67.41;98036.72;6296608;28;20965;-56
2024/03/21 08:42:11;;;;;;;4.80;3.63;;;;;;;12.82;66.24;98033.78;6304153;28;20204;-55
2024/03/21 08:45:12;;;;;;;4.57;3.40;;;;;;;13.04;63.94;98037.25;6299698;28;20248;-54
2024/03/21 08:48:14;;;;;;;4.07;3.60;;;;;;;13.39;65.29;98036.06;6293582;28;20330;-55
2024/03/21 08:51:15;;;;;;;6.17;4.93;;;;;;;13.76;56.22;98027.38;6294008;28;20186;-55
2024/03/21 09:04:06;;;;;;;8.97;5.30;;;;;;;14.86;47.09;98019.59;6155407;28;20285;-53
2024/03/21 09:07:07;;;;;;;7.43;5.37;;;;;;;15.09;46.08;98021.84;6174669;28;20282;-57
2024/03/21 09:10:09;;;;;;;8.07;4.53;;;;;;;15.25;48.49;98013.88;6198537;28;20212;-54
2024/03/21 09:13:10;;;;;;;8.07;5.33;;;;;;;15.48;44.76;98024.94;6201250;28;20196;-52
2024/03/21 09:16:11;;;;;;;6.37;5.10;;;;;;;15.44;45.37;98021.16;6203404;28;20291;-53
2024/03/21 09:19:12;;;;;;;7.83;5.53;;;;;;;15.20;45.76;97987.81;6204154;28;20687;-54
2024/03/21 09:22:13;;;;;;;6.37;4.90;;;;;;;15.55;46.53;98019.31;6200073;28;20212;-47
2024/03/21 09:25:14;;;;;;;7.80;5.07;;;;;;;15.66;45.51;98021.00;6205768;28;20687;-54
2024/03/21 09:28:15;;;;;;;6.80;5.00;;;;;;;15.85;41.50;98015.09;6203815;28;20998;-50
2024/03/21 09:31:16;;;;;;;6.83;5.33;;;;;;;15.88;41.52;98006.50;6188825;28;20598;-58
2024/03/21 09:34:18;;;;;;;7.50;5.23;;;;;;;15.52;42.43;98008.28;6204821;28;20208;-51
2024/03/21 09:37:19;;;;;;;7.53;5.47;;;;;;;15.43;43.26;97994.59;6279310;28;20191;-51
2024/03/21 09:40:23;;;;;;;7.33;5.17;;;;;;;15.63;42.89;97997.34;6262157;28;20210;-55
2024/03/21 09:43:24;;;;;;;8.60;5.47;;;;;;;15.96;40.69;98004.09;6274815;28;20193;-52
2024/03/21 09:46:27;;;;;;;9.13;6.17;;;;;;;15.64;41.88;98004.31;6289068;28;20885;-51
2024/03/21 09:49:30;;;;;;;9.27;6.70;;;;;;;15.45;42.24;97989.75;6282728;28;20240;-54
2024/03/21 09:52:31;;;;;;;11.53;8.73;;;;;;;15.28;44.08;97999.94;6278897;28;20570;-58
2024/03/21 09:55:34;;;;;;;14.47;9.40;;;;;;;15.27;45.06;97999.13;6278928;28;20197;-53
2024/03/21 09:58:36;;;;;;;11.90;9.13;;;;;;;15.47;45.38;97993.00;6281195;28;20578;-51
2024/03/21 10:01:37;;;;;;;12.90;9.50;;;;;;;15.61;44.90;97999.44;6287106;28;20599;-53
2024/03/21 10:04:47;;;;;;;12.60;9.53;;;;;;;15.74;44.73;97990.09;6280074;28;20194;-53
2024/03/21 10:07:48;;;;;;;16.70;11.40;;;;;;;15.86;43.81;97992.50;6278644;28;20218;-52
2024/03/21 10:10:49;;;;;;;13.50;9.47;;;;;;;15.93;43.62;97987.69;6273550;28;20623;-55
2024/03/21 10:13:51;;;;;;;14.97;10.17;;;;;;;15.84;42.97;97987.41;6279336;28;20185;-52
2024/03/21 10:16:52;;;;;;;15.53;10.40;;;;;;;15.61;43.57;97994.06;6281001;28;20194;-52
2024/03/21 10:19:53;;;;;;;15.93;11.13;;;;;;;15.73;44.33;97973.19;6277169;28;20197;-53
2024/03/21 10:22:56;;;;;;;16.63;11.43;;;;;;;15.48;43.68;97990.03;6286772;28;20659;-54
2024/03/21 10:25:57;;;;;;;17.60;11.23;;;;;;;15.45;44.26;97981.69;6265546;28;20195;-54
2024/03/21 10:28:59;;;;;;;16.60;11.00;;;;;;;15.54;44.06;97984.69;6281588;28;20205;-54
2024/03/21 10:32:00;;;;;;;14.90;11.40;;;;;;;15.48;43.75;97973.13;6273482;28;20662;-53
2024/03/21 10:35:02;;;;;;;15.37;10.73;;;;;;;15.81;43.77;97973.72;6289724;28;20610;-55
2024/03/21 10:38:05;;;;;;;15.40;11.17;;;;;;;15.91;43.44;97974.53;6274727;28;20197;-54
2024/03/21 10:41:26;;;;;;;17.50;10.50;;;;;;;15.89;43.66;97960.56;6275035;28;20199;-54
2024/03/21 10:44:27;;;;;;;13.60;9.97;;;;;;;15.95;43.32;97966.72;6273988;28;20230;-54
2024/03/21 10:47:29;;;;;;;16.63;10.90;;;;;;;15.70;43.42;97946.03;6274847;28;20758;-52
2024/03/21 10:50:30;;;;;;;15.43;10.63;;;;;;;15.88;43.46;97953.56;6289265;28;20662;-56
2024/03/21 10:53:31;;;;;;;12.77;9.50;;;;;;;15.94;43.57;97970.50;6255581;28;20186;-55
2024/03/21 10:56:40;;;;;;;14.10;9.47;;;;;;;15.81;44.12;97966.47;6262799;28;20274;-53
2024/03/21 10:59:43;;;;;;;15.83;11.27;;;;;;;15.76;45.42;97966.44;6275192;28;20647;-53
2024/03/21 11:02:48;;;;;;;17.30;11.60;;;;;;;15.58;44.35;97961.59;6274948;28;20677;-55
2024/03/21 11:05:58;;;;;;;19.70;11.67;;;;;;;15.61;44.22;97961.03;6253966;28;20914;-55
2024/03/21 11:09:01;;;;;;;15.10;10.33;;;;;;;15.57;46.51;97955.41;6276779;28;20754;-54
2024/03/21 11:12:03;;;;;;;15.07;9.63;;;;;;;15.77;45.68;97959.22;6280249;28;20187;-53
2024/03/21 11:15:04;;;;;;;14.50;10.57;;;;;;;15.98;45.59;97964.31;6270407;28;20179;-53
2024/03/21 11:18:06;;;;;;;15.30;9.73;;;;;;;16.00;45.09;97953.28;6277268;28;20666;-52
2024/03/21 11:21:14;;;;;;;16.77;10.93;;;;;;;15.89;44.39;97955.19;6279776;28;20190;-55
2024/03/21 11:24:16;;;;;;;15.47;11.73;;;;;;;15.68;44.25;97940.16;6275721;28;20202;-54
2024/03/21 11:27:18;;;;;;;17.30;11.53;;;;;;;15.66;45.28;97958.38;6273758;28;20195;-52
2024/03/21 11:30:19;;;;;;;16.60;11.50;;;;;;;15.61;45.16;97943.03;6255619;28;20688;-54
2024/03/21 11:33:20;;;;;;;15.43;11.53;;;;;;;15.65;47.02;97946.84;6273665;28;20592;-53
2024/03/21 11:36:23;;;;;;;16.83;11.50;;;;;;;15.84;44.76;97938.25;6277691;28;20183;-55
2024/03/21 11:39:26;;;;;;;16.43;10.87;;;;;;;15.86;45.49;97933.41;6291917;28;20186;-52
2024/03/21 11:42:28;;;;;;;16.70;9.90;;;;;;;16.09;45.48;97938.22;6273681;28;20198;-55
2024/03/21 11:45:29;;;;;;;14.67;11.10;;;;;;;16.20;43.32;97936.31;6281160;28;20284;-54
2024/03/21 11:48:30;;;;;;;15.73;11.10;;;;;;;16.25;43.94;97939.00;6266108;28;20206;-56
2024/03/21 11:51:32;;;;;;;12.47;9.80;;;;;;;16.37;44.94;97927.97;6276515;28;20221;-53
2024/03/21 11:54:34;;;;;;;15.80;9.90;;;;;;;16.50;42.90;97908.56;6259642;28;20189;-55
2024/03/21 11:57:35;;;;;;;14.97;10.13;;;;;;;16.63;42.98;97934.88;6286972;28;20174;-54
2024/03/21 12:00:36;;;;;;;14.30;10.10;;;;;;;16.60;42.76;97924.69;6283898;28;20226;-55
2024/03/21 12:03:37;;;;;;;15.07;10.50;;;;;;;16.50;42.26;97919.31;6277641;28;20195;-53
2024/03/21 12:06:38;;;;;;;14.23;10.43;;;;;;;16.54;42.90;97925.75;6289253;28;20209;-55
2024/03/21 12:09:39;;;;;;;17.00;10.97;;;;;;;16.01;43.61;97906.56;6271474;28;20201;-53
2024/03/21 12:12:40;;;;;;;15.80;10.30;;;;;;;16.28;43.57;97919.66;6278695;28;20187;-54
2024/03/21 12:15:44;;;;;;;14.90;10.17;;;;;;;16.31;44.44;97902.19;6277797;28;20187;-55
2024/03/21 12:18:46;;;;;;;13.67;9.33;;;;;;;16.69;43.84;97914.13;6258145;28;20240;-56
2024/03/21 12:21:48;;;;;;;14.00;11.03;;;;;;;16.73;41.55;97897.19;6261092;28;20203;-55
2024/03/21 12:24:49;;;;;;;15.17;10.53;;;;;;;16.48;42.32;97884.63;6260893;28;20239;-55
2024/03/21 12:27:49;;;;;;;13.67;10.00;;;;;;;16.46;42.86;97900.25;6260612;28;20218;-54
2024/03/21 12:30:56;;;;;;;18.57;11.13;;;;;;;16.19;42.65;97887.13;6278683;28;20194;-55
2024/03/21 12:34:00;;;;;;;13.57;10.53;;;;;;;16.31;43.26;97903.00;6265046;28;20666;-54
2024/03/21 12:37:01;;;;;;;14.77;10.10;;;;;;;16.28;43.67;97895.47;6293825;28;20186;-54
2024/03/21 12:40:02;;;;;;;12.97;10.33;;;;;;;16.48;43.55;97899.97;6281735;28;20573;-55
2024/03/21 12:43:06;;;;;;;16.47;10.00;;;;;;;16.59;42.80;97900.72;6279420;28;20194;-55
2024/03/21 12:46:09;;;;;;;16.60;10.40;;;;;;;16.82;42.54;97899.31;6270581;28;20230;-54
2024/03/21 12:49:10;;;;;;;12.87;9.73;;;;;;;16.71;43.54;97895.84;6276890;28;20226;-55
2024/03/21 12:52:12;;;;;;;13.43;9.93;;;;;;;16.76;43.53;97898.56;6277232;28;20198;-54
2024/03/21 12:55:13;;;;;;;15.37;10.50;;;;;;;16.62;43.46;97892.94;6265158;28;20190;-54
2024/03/21 12:58:16;;;;;;;15.17;10.83;;;;;;;16.24;43.94;97900.56;6272565;28;20197;-53
2024/03/21 13:01:17;;;;;;;12.50;9.50;;;;;;;16.02;44.84;97875.91;6276392;28;20823;-53
2024/03/21 13:04:18;;;;;;;14.77;10.33;;;;;;;16.03;44.28;97888.25;6281950;28;20256;-55
2024/03/21 13:07:19;;;;;;;16.93;10.00;;;;;;;16.03;44.60;97893.63;6284315;28;20209;-54
2024/03/21 13:10:20;;;;;;;13.87;10.57;;;;;;;16.07;44.31;97896.59;6277416;28;20210;-55
2024/03/21 13:13:21;;;;;;;16.80;10.80;;;;;;;15.95;44.19;97894.19;6277004;28;20190;-53
2024/03/21 13:16:22;;;;;;;13.57;9.73;;;;;;;15.72;44.14;97888.31;6262842;28;20700;-54
2024/03/21 13:19:25;;;;;;;16.13;10.13;;;;;;;15.70;44.79;97890.44;6285679;28;20187;-53
2024/03/21 13:22:26;;;;;;;17.13;11.17;;;;;;;15.76;44.84;97896.59;6278185;28;20666;-54
2024/03/21 13:25:30;;;;;;;13.13;9.73;;;;;;;15.49;46.27;97897.66;6276190;28;20279;-54
2024/03/21 13:28:31;;;;;;;13.53;9.83;;;;;;;15.49;46.25;97899.56;6261824;28;20632;-55
2024/03/21 13:31:34;;;;;;;13.77;9.63;;;;;;;15.53;45.69;97891.78;6277721;28;20186;-54
2024/03/21 13:34:36;;;;;;;15.37;9.43;;;;;;;15.44;46.80;97897.66;6258148;28;20207;-53
2024/03/21 13:37:37;;;;;;;14.43;10.00;;;;;;;15.53;45.74;97897.94;6280194;28;20194;-54
2024/03/21 13:40:39;;;;;;;12.77;8.57;;;;;;;15.33;46.51;97889.88;6275767;28;20193;-55
2024/03/21 13:43:40;;;;;;;16.73;10.60;;;;;;;15.38;45.92;97901.44;6278207;28;20182;-52
2024/03/21 13:46:41;;;;;;;13.93;9.30;;;;;;;15.31;46.09;97897.38;6275498;28;20205;-53
2024/03/21 13:49:42;;;;;;;15.77;10.07;;;;;;;15.26;47.05;97898.19;6262999;28;20270;-54
2024/03/21 13:52:44;;;;;;;15.13;9.20;;;;;;;15.23;47.53;97898.72;6274978;28;20269;-54
2024/03/21 13:55:45;;;;;;;16.20;9.03;;;;;;;15.07;47.96;97897.06;6264892;28;20285;-55
2024/03/21 13:58:46;;;;;;;15.60;8.60;;;;;;;15.01;49.66;97901.63;6286767;28;20274;-54
2024/03/21 14:01:47;;;;;;;14.63;9.33;;;;;;;15.00;49.09;97894.66;6285258;28;20190;-54
2024/03/21 14:04:48;;;;;;;13.70;8.10;;;;;;;14.92;50.31;97895.16;6290268;28;20762;-55
2024/03/21 14:07:49;;;;;;;12.07;7.77;;;;;;;14.84;50.58;97893.00;6275318;28;20194;-54
2024/03/21 14:10:50;;;;;;;16.00;9.63;;;;;;;14.71;49.56;97887.06;6267410;28;20201;-54
2024/03/21 14:13:52;;;;;;;14.00;9.07;;;;;;;14.65;49.40;97882.75;6278843;28;20289;-55
2024/03/21 14:16:52;;;;;;;13.23;8.20;;;;;;;14.73;51.12;97888.66;6278465;28;20194;-56